Stolt Surf — ZCSR3 — position and weather

sailwx.info

Track history (hours):
 
Tides and Currents Weather Stations Pressure Air Temp Water Temp Dewpoint Dewpoint Depression Visibility Wind Speed Wind Dir Waves Ship Positions

Stolt Surf

Last reported at 2017-Jun-22 19:24 UTC. Time now 2017-Jun-22 22:26 UTC.
Position N 49°05' W 004°48'.

Length 163 m; draft 9.2 m.

Type: Ship. MMSI: 319545000.

Date/timePositionNaut miles runAvg speedWind from/ knotsBaromVisibWave heightAir tempDewpointWater temp
2017-Jun-22 19:24N 49°05' W 004°48'511.9
2017-Jun-22 19:00N 49°03' W 004°54'712.7
2017-Jun-22 18:27N 48°59' W 005°03'613.4
2017-Jun-22 18:01N 48°56' W 005°12'1614.6
2017-Jun-22 16:53N 48°50' W 005°34'56815.2
2017-Jun-21 03:26N 39°53' W 009°57'2315.9
2017-Jun-21 02:00N 39°31' W 009°57'915.8
2017-Jun-21 01:27N 39°22' W 009°57'715.9
2017-Jun-21 01:00N 39°15' W 009°56'816.2
2017-Jun-21 00:30N 39°07' W 009°57'816.2
2017-Jun-21 00:00N 38°59' W 009°57'815.8
2017-Jun-20 23:30N 38°51' W 009°57'815.7
2017-Jun-20 23:00N 38°43' W 009°57'815.3
2017-Jun-20 22:30N 38°36' W 009°55'815.1
2017-Jun-20 22:00N 38°28' W 009°53'815.0
2017-Jun-20 21:30N 38°21' W 009°51'714.9
2017-Jun-20 21:00N 38°14' W 009°48'715.0
2017-Jun-20 20:30N 38°06' W 009°46'714.9
2017-Jun-20 20:00N 37°59' W 009°44'714.7
2017-Jun-20 19:30N 37°52' W 009°42'914.8
2017-Jun-20 18:56N 37°44' W 009°39'1315.1
2017-Jun-20 18:06N 37°31' W 009°36'215.2
2017-Jun-20 18:00N 37°30' W 009°36'815.5
2017-Jun-20 17:30N 37°22' W 009°33'815.8
2017-Jun-20 16:59N 37°15' W 009°31'1315.7
2017-Jun-20 16:12N 37°02' W 009°27'415.7
2017-Jun-20 15:57N 36°59' W 009°26'1115.0
2017-Jun-20 15:12N 36°48' W 009°21'815.5
2017-Jun-20 14:41N 36°42' W 009°14'1515.1
2017-Jun-20 13:39N 36°37' W 008°56'215.1
2017-Jun-20 13:30N 36°37' W 008°53'1614.2
2017-Jun-20 12:23N 36°32' W 008°34'2814.1
2017-Jun-20 10:23N 36°25' W 008°00'614.9
2017-Jun-20 10:00N 36°23' W 007°54'11315.3
2017-Jun-20 02:38N 35°58' W 005°38'212.7
2017-Jun-20 02:30N 35°58' W 005°36'612.0
2017-Jun-20 02:00N 36°00' W 005°29'612.3
2017-Jun-20 01:30N 36°02' W 005°21'613.0
2017-Jun-20 01:00N 36°04' W 005°14'713.5
2017-Jun-20 00:27N 36°05' W 005°05'11415.0
2017-Jun-19 16:51N 36°11' W 002°44'615.9
2017-Jun-19 16:30N 36°11' W 002°37'7115.4
2017-Jun-19 11:53N 36°26' W 001°11'715.5
2017-Jun-19 11:27N 36°28' W 001°03'715.7
2017-Jun-19 11:00N 36°30' W 000°54'815.5
2017-Jun-19 10:30N 36°32' W 000°45'1515.4
2017-Jun-19 09:30N 36°36' W 000°26'815.4
2017-Jun-19 08:59N 36°38' W 000°17'4315.1
2017-Jun-19 06:08N 36°50' E 000°35'714.5
2017-Jun-19 05:37N 36°52' E 000°44'214.7
2017-Jun-19 05:29N 36°52' E 000°47'814.9
2017-Jun-19 04:57N 36°55' E 000°56'715.5
2017-Jun-19 04:30N 36°57' E 001°04'1715.8
2017-Jun-19 03:26N 37°01' E 001°25'2516.0
2017-Jun-19 01:52N 37°08' E 001°55'36615.3
2017-Jun-18 02:03N 37°46' E 009°33'114.6
2017-Jun-18 01:59N 37°46' E 009°34'9814.4
2017-Jun-17 19:12N 37°18' E 011°32'315.7
2017-Jun-17 18:59N 37°16' E 011°36'715.5
2017-Jun-17 18:30N 37°12' E 011°44'1015.3
2017-Jun-17 17:50N 37°07' E 011°55'515.1
2017-Jun-17 17:30N 37°05' E 012°01'714.8
2017-Jun-17 17:00N 37°02' E 012°09'714.7
2017-Jun-17 16:30N 36°60' E 012°18'714.4
2017-Jun-17 16:00N 36°57' E 012°26'714.4
2017-Jun-17 15:30N 36°55' E 012°35'714.4
2017-Jun-17 15:00N 36°52' E 012°43'1514.8
2017-Jun-17 14:00N 36°47' E 013°00'815.3
2017-Jun-17 13:30N 36°44' E 013°09'815.3
2017-Jun-17 13:00N 36°42' E 013°19'815.2
2017-Jun-17 12:30N 36°39' E 013°27'815.0
2017-Jun-17 12:00N 36°37' E 013°36'714.9
2017-Jun-17 11:30N 36°34' E 013°45'714.7
2017-Jun-17 11:00N 36°31' E 013°53'714.8
2017-Jun-17 10:30N 36°28' E 014°02'4 8.1
2017-Jun-17 10:00N 36°25' E 014°05'0 0.6
2017-Jun-17 09:30N 36°25' E 014°05'1 1.7
2017-Jun-17 09:00N 36°26' E 014°06'814.8
2017-Jun-17 08:30N 36°25' E 014°15'714.8
2017-Jun-17 08:00N 36°22' E 014°23'714.8
2017-Jun-17 07:30N 36°20' E 014°32'714.8
2017-Jun-17 07:00N 36°18' E 014°41'714.6
2017-Jun-17 06:30N 36°15' E 014°50'814.5
2017-Jun-17 05:59N 36°13' E 014°58'814.6
2017-Jun-17 05:24N 36°11' E 015°09'615.0
2017-Jun-17 05:00N 36°09' E 015°15'815.2
2017-Jun-17 04:30N 36°07' E 015°24'815.5
2017-Jun-17 04:00N 36°04' E 015°34'815.7
2017-Jun-17 03:30N 36°02' E 015°43'1015.7
2017-Jun-17 02:50N 35°59' E 015°55'4615.5
2017-Jun-16 23:52N 35°45' E 016°49'615.4
2017-Jun-16 23:30N 35°44' E 016°56'2815.7
2017-Jun-16 21:44N 35°35' E 017°29'415.8
2017-Jun-16 21:30N 35°34' E 017°33'815.7
2017-Jun-16 21:00N 35°32' E 017°43'815.5
2017-Jun-16 20:27N 35°29' E 017°52'715.3
2017-Jun-16 20:00N 35°27' E 018°00'4715.4
2017-Jun-16 16:58N 35°14' E 018°55'915.3
2017-Jun-16 16:24N 35°11' E 019°05'715.3
2017-Jun-16 15:55N 35°09' E 019°14'25615.2
2017-Jun-15 23:05N 33°53' E 024°11'415.0
2017-Jun-15 22:47N 33°52' E 024°16'815.0
2017-Jun-15 22:14N 33°49' E 024°25'  
Track history (hours):
 
Tides and Currents Weather Stations Pressure Air Temp Water Temp Dewpoint Dewpoint Depression Visibility Wind Speed Wind Dir Waves Ship Positions

Stolt Surf

Last reported at 2017-Jun-22 19:24 UTC. Time now 2017-Jun-22 22:26 UTC.
Position N 49°05' W 004°48'.

Length 163 m; draft 9.2 m.

Type: Ship. MMSI: 319545000.

Date/timePositionNaut miles runAvg speedWind from/ knotsBaromVisibWave heightAir tempDewpointWater temp
2017-Jun-22 19:24N 49°05' W 004°48'511.9
2017-Jun-22 19:00N 49°03' W 004°54'712.7
2017-Jun-22 18:27N 48°59' W 005°03'613.4
2017-Jun-22 18:01N 48°56' W 005°12'1614.6
2017-Jun-22 16:53N 48°50' W 005°34'56815.2
2017-Jun-21 03:26N 39°53' W 009°57'2315.9
2017-Jun-21 02:00N 39°31' W 009°57'915.8
2017-Jun-21 01:27N 39°22' W 009°57'715.9
2017-Jun-21 01:00N 39°15' W 009°56'816.2
2017-Jun-21 00:30N 39°07' W 009°57'816.2
2017-Jun-21 00:00N 38°59' W 009°57'815.8
2017-Jun-20 23:30N 38°51' W 009°57'815.7
2017-Jun-20 23:00N 38°43' W 009°57'815.3
2017-Jun-20 22:30N 38°36' W 009°55'815.1
2017-Jun-20 22:00N 38°28' W 009°53'815.0
2017-Jun-20 21:30N 38°21' W 009°51'714.9
2017-Jun-20 21:00N 38°14' W 009°48'715.0
2017-Jun-20 20:30N 38°06' W 009°46'714.9
2017-Jun-20 20:00N 37°59' W 009°44'714.7
2017-Jun-20 19:30N 37°52' W 009°42'914.8
2017-Jun-20 18:56N 37°44' W 009°39'1315.1
2017-Jun-20 18:06N 37°31' W 009°36'215.2
2017-Jun-20 18:00N 37°30' W 009°36'815.5
2017-Jun-20 17:30N 37°22' W 009°33'815.8
2017-Jun-20 16:59N 37°15' W 009°31'1315.7
2017-Jun-20 16:12N 37°02' W 009°27'415.7
2017-Jun-20 15:57N 36°59' W 009°26'1115.0
2017-Jun-20 15:12N 36°48' W 009°21'815.5
2017-Jun-20 14:41N 36°42' W 009°14'1515.1
2017-Jun-20 13:39N 36°37' W 008°56'215.1
2017-Jun-20 13:30N 36°37' W 008°53'1614.2
2017-Jun-20 12:23N 36°32' W 008°34'2814.1
2017-Jun-20 10:23N 36°25' W 008°00'614.9
2017-Jun-20 10:00N 36°23' W 007°54'11315.3
2017-Jun-20 02:38N 35°58' W 005°38'212.7
2017-Jun-20 02:30N 35°58' W 005°36'612.0
2017-Jun-20 02:00N 36°00' W 005°29'612.3
2017-Jun-20 01:30N 36°02' W 005°21'613.0
2017-Jun-20 01:00N 36°04' W 005°14'713.5
2017-Jun-20 00:27N 36°05' W 005°05'11415.0
2017-Jun-19 16:51N 36°11' W 002°44'615.9
2017-Jun-19 16:30N 36°11' W 002°37'7115.4
2017-Jun-19 11:53N 36°26' W 001°11'715.5
2017-Jun-19 11:27N 36°28' W 001°03'715.7
2017-Jun-19 11:00N 36°30' W 000°54'815.5
2017-Jun-19 10:30N 36°32' W 000°45'1515.4
2017-Jun-19 09:30N 36°36' W 000°26'815.4
2017-Jun-19 08:59N 36°38' W 000°17'4315.1
2017-Jun-19 06:08N 36°50' E 000°35'714.5
2017-Jun-19 05:37N 36°52' E 000°44'214.7
2017-Jun-19 05:29N 36°52' E 000°47'814.9
2017-Jun-19 04:57N 36°55' E 000°56'715.5
2017-Jun-19 04:30N 36°57' E 001°04'1715.8
2017-Jun-19 03:26N 37°01' E 001°25'2516.0
2017-Jun-19 01:52N 37°08' E 001°55'36615.3
2017-Jun-18 02:03N 37°46' E 009°33'114.6
2017-Jun-18 01:59N 37°46' E 009°34'9814.4
2017-Jun-17 19:12N 37°18' E 011°32'315.7
2017-Jun-17 18:59N 37°16' E 011°36'715.5
2017-Jun-17 18:30N 37°12' E 011°44'1015.3
2017-Jun-17 17:50N 37°07' E 011°55'515.1
2017-Jun-17 17:30N 37°05' E 012°01'714.8
2017-Jun-17 17:00N 37°02' E 012°09'714.7
2017-Jun-17 16:30N 36°60' E 012°18'714.4
2017-Jun-17 16:00N 36°57' E 012°26'714.4
2017-Jun-17 15:30N 36°55' E 012°35'714.4
2017-Jun-17 15:00N 36°52' E 012°43'1514.8
2017-Jun-17 14:00N 36°47' E 013°00'815.3
2017-Jun-17 13:30N 36°44' E 013°09'815.3
2017-Jun-17 13:00N 36°42' E 013°19'815.2
2017-Jun-17 12:30N 36°39' E 013°27'815.0
2017-Jun-17 12:00N 36°37' E 013°36'714.9
2017-Jun-17 11:30N 36°34' E 013°45'714.7
2017-Jun-17 11:00N 36°31' E 013°53'714.8
2017-Jun-17 10:30N 36°28' E 014°02'4 8.1
2017-Jun-17 10:00N 36°25' E 014°05'0 0.6
2017-Jun-17 09:30N 36°25' E 014°05'1 1.7
2017-Jun-17 09:00N 36°26' E 014°06'814.8
2017-Jun-17 08:30N 36°25' E 014°15'714.8
2017-Jun-17 08:00N 36°22' E 014°23'714.8
2017-Jun-17 07:30N 36°20' E 014°32'714.8
2017-Jun-17 07:00N 36°18' E 014°41'714.6
2017-Jun-17 06:30N 36°15' E 014°50'814.5
2017-Jun-17 05:59N 36°13' E 014°58'814.6
2017-Jun-17 05:24N 36°11' E 015°09'615.0
2017-Jun-17 05:00N 36°09' E 015°15'815.2
2017-Jun-17 04:30N 36°07' E 015°24'815.5
2017-Jun-17 04:00N 36°04' E 015°34'815.7
2017-Jun-17 03:30N 36°02' E 015°43'1015.7
2017-Jun-17 02:50N 35°59' E 015°55'4615.5
2017-Jun-16 23:52N 35°45' E 016°49'615.4
2017-Jun-16 23:30N 35°44' E 016°56'2815.7
2017-Jun-16 21:44N 35°35' E 017°29'415.8
2017-Jun-16 21:30N 35°34' E 017°33'815.7
2017-Jun-16 21:00N 35°32' E 017°43'815.5
2017-Jun-16 20:27N 35°29' E 017°52'715.3
2017-Jun-16 20:00N 35°27' E 018°00'4715.4
2017-Jun-16 16:58N 35°14' E 018°55'915.3
2017-Jun-16 16:24N 35°11' E 019°05'715.3
2017-Jun-16 15:55N 35°09' E 019°14'25615.2
2017-Jun-15 23:05N 33°53' E 024°11'415.0
2017-Jun-15 22:47N 33°52' E 024°16'815.0
2017-Jun-15 22:14N 33°49' E 024°25'  

Dump ship's entire track history